createdAt,value
2019-04-07T00:00:29.045Z,13.90
2019-04-07T00:02:57.482Z,13.80
2019-04-07T00:05:26.568Z,13.23
2019-04-07T00:07:55.769Z,12.13
2019-04-07T00:10:24.939Z,13.27
2019-04-07T00:12:53.910Z,12.93
2019-04-07T00:15:22.998Z,12.57
2019-04-07T00:17:51.506Z,13.43
2019-04-07T00:20:20.022Z,12.60
2019-04-07T00:22:48.810Z,12.57
2019-04-07T00:25:17.721Z,12.57
2019-04-07T00:27:46.626Z,13.00
2019-04-07T00:30:15.560Z,12.77
2019-04-07T00:32:44.255Z,12.90
2019-04-07T00:35:23.248Z,12.50
2019-04-07T00:37:43.136Z,12.70
2019-04-07T00:40:13.126Z,13.13
2019-04-07T00:42:41.556Z,12.37
2019-04-07T00:45:10.722Z,12.50
2019-04-07T00:47:39.153Z,12.80
2019-04-07T00:50:07.933Z,12.53
2019-04-07T00:52:36.920Z,13.13
2019-04-07T00:55:07.662Z,13.17
2019-04-07T00:57:36.334Z,12.70
2019-04-07T01:00:09.560Z,12.50
2019-04-07T01:02:38.751Z,12.07
2019-04-07T01:05:07.478Z,12.87
2019-04-07T01:07:36.119Z,12.93
2019-04-07T01:10:06.173Z,11.97
2019-04-07T01:12:34.692Z,12.20
2019-04-07T01:15:04.296Z,11.90
2019-04-07T01:17:33.329Z,12.30
2019-04-07T01:20:01.825Z,12.07
2019-04-07T01:22:30.882Z,12.40
2019-04-07T01:24:59.445Z,11.93
2019-04-07T01:27:28.520Z,12.20
2019-04-07T01:29:57.110Z,12.17
2019-04-07T01:32:25.704Z,12.47
2019-04-07T01:34:54.710Z,12.30
2019-04-07T01:37:23.297Z,11.57
2019-04-07T01:39:51.739Z,12.00
2019-04-07T01:42:33.709Z,11.97
2019-04-07T01:45:12.812Z,11.80
2019-04-07T01:47:43.109Z,11.27
2019-04-07T01:50:13.412Z,11.60
2019-04-07T01:52:50.306Z,11.87
2019-04-07T01:55:26.861Z,12.10
2019-04-07T01:58:12.008Z,12.80
2019-04-07T02:00:42.943Z,11.70
2019-04-07T02:03:13.078Z,11.20
2019-04-07T02:05:58.623Z,10.83
2019-04-07T02:08:23.384Z,12.17
2019-04-07T02:10:53.503Z,11.73
2019-04-07T02:13:36.148Z,12.43
2019-04-07T02:16:09.206Z,11.50
2019-04-07T02:18:40.007Z,12.40
2019-04-07T02:21:10.292Z,12.17
2019-04-07T02:23:55.949Z,11.67
2019-04-07T02:26:28.976Z,12.30
2019-04-07T02:29:02.696Z,12.00
2019-04-07T02:31:35.956Z,12.03
2019-04-07T02:34:12.243Z,11.83
2019-04-07T02:36:44.970Z,11.77
2019-04-07T02:39:21.503Z,11.73
2019-04-07T02:41:54.782Z,11.93
2019-04-07T02:44:41.041Z,11.90
2019-04-07T02:47:11.202Z,12.53
2019-04-07T02:49:43.924Z,12.50
2019-04-07T02:52:23.020Z,12.47
2019-04-07T02:54:55.846Z,12.20
2019-04-07T02:57:26.124Z,13.27
2019-04-07T02:59:57.828Z,13.23
2019-04-07T03:02:28.369Z,11.90
2019-04-07T03:05:05.304Z,12.20
2019-04-07T03:07:42.043Z,12.03
2019-04-07T03:10:12.813Z,11.50
2019-04-07T03:12:48.950Z,12.53
2019-04-07T03:15:24.961Z,12.17
2019-04-07T03:18:00.997Z,12.13
2019-04-07T03:20:31.191Z,12.87
2019-04-07T03:23:05.129Z,12.23
2019-04-07T03:25:53.235Z,12.23
2019-04-07T03:28:29.143Z,12.70
2019-04-07T03:31:12.842Z,12.37
2019-04-07T03:34:01.212Z,12.73
2019-04-07T03:37:08.953Z,12.33
2019-04-07T03:39:24.478Z,12.20
2019-04-07T03:41:57.643Z,13.23
2019-04-07T03:44:36.949Z,13.57
2019-04-07T03:47:22.324Z,13.63
2019-04-07T03:49:57.895Z,12.60
2019-04-07T03:52:46.768Z,12.77
2019-04-07T03:55:25.974Z,12.57
2019-04-07T03:58:08.260Z,12.70
2019-04-07T04:01:03.788Z,13.20
2019-04-07T04:03:37.386Z,12.87
2019-04-07T04:06:11.679Z,13.40
2019-04-07T04:08:58.695Z,13.70
2019-04-07T04:11:32.419Z,12.87
2019-04-07T04:14:15.199Z,13.63
2019-04-07T04:16:45.791Z,13.47
2019-04-07T04:19:14.507Z,13.20
2019-04-07T04:21:44.293Z,13.50
2019-04-07T04:24:12.942Z,13.03
2019-04-07T04:26:42.047Z,12.77
2019-04-07T04:29:10.826Z,13.20
2019-04-07T04:31:40.176Z,12.90
2019-04-07T04:34:09.587Z,13.60
2019-04-07T04:36:38.364Z,12.93
2019-04-07T04:39:08.259Z,14.63
2019-04-07T04:41:36.942Z,13.80
2019-04-07T04:44:05.416Z,14.47
2019-04-07T04:46:34.449Z,13.10
2019-04-07T04:49:03.029Z,13.47
2019-04-07T04:51:36.292Z,14.37
2019-04-07T04:54:01.661Z,14.57
2019-04-07T04:56:30.937Z,13.53
2019-04-07T04:58:59.806Z,14.20
2019-04-07T05:01:28.278Z,14.00
2019-04-07T05:03:56.730Z,14.07
2019-04-07T05:06:25.363Z,13.87
2019-04-07T05:08:54.521Z,14.43
2019-04-07T05:11:23.895Z,14.60
2019-04-07T05:13:52.994Z,14.30
2019-04-07T05:16:21.513Z,14.33
2019-04-07T05:18:50.035Z,13.87
2019-04-07T05:21:18.639Z,13.73
2019-04-07T05:23:47.173Z,14.70
2019-04-07T05:26:15.726Z,14.80
2019-04-07T05:28:44.996Z,13.50
2019-04-07T05:31:13.524Z,13.97
2019-04-07T05:33:42.049Z,14.60
2019-04-07T05:36:10.523Z,14.27
2019-04-07T05:38:39.512Z,14.37
2019-04-07T05:41:08.071Z,13.83
2019-04-07T05:43:36.965Z,13.70
2019-04-07T05:46:07.081Z,14.10
2019-04-07T05:48:36.101Z,13.97
2019-04-07T05:51:04.552Z,13.97
2019-04-07T05:53:33.320Z,13.87
2019-04-07T05:56:02.240Z,14.03
2019-04-07T05:58:30.777Z,14.00
2019-04-07T06:00:59.527Z,14.20
2019-04-07T06:03:28.628Z,13.07
2019-04-07T06:05:57.773Z,14.03
2019-04-07T06:08:33.729Z,13.63
2019-04-07T06:11:00.037Z,14.60
2019-04-07T06:13:26.757Z,14.03
2019-04-07T06:15:55.197Z,14.53
2019-04-07T06:18:23.955Z,14.60
2019-04-07T06:20:52.465Z,15.63
2019-04-07T06:23:24.237Z,14.40
2019-04-07T06:25:51.133Z,14.77
2019-04-07T06:28:19.647Z,14.50
2019-04-07T06:30:48.378Z,15.00
2019-04-07T06:33:17.490Z,14.67
2019-04-07T06:35:47.336Z,14.73
2019-04-07T06:38:16.636Z,16.27
2019-04-07T06:40:45.885Z,14.90
2019-04-07T06:43:14.604Z,15.83
2019-04-07T06:45:47.797Z,15.03
2019-04-07T06:48:16.621Z,14.70
2019-04-07T06:50:58.309Z,15.77
2019-04-07T06:53:27.941Z,15.23
2019-04-07T06:56:03.225Z,16.23
2019-04-07T06:58:41.408Z,15.67
2019-04-07T07:01:11.104Z,14.70
2019-04-07T07:03:47.622Z,15.57
2019-04-07T07:06:20.554Z,16.47
2019-04-07T07:08:55.653Z,15.33
2019-04-07T07:11:43.268Z,15.43
2019-04-07T07:14:36.701Z,14.83
2019-04-07T07:17:18.555Z,16.40
2019-04-07T07:19:48.757Z,16.23
2019-04-07T07:22:21.856Z,15.20
2019-04-07T07:24:50.388Z,15.63
2019-04-07T07:27:18.990Z,16.17
2019-04-07T07:29:48.544Z,15.40
2019-04-07T07:32:18.010Z,15.90
2019-04-07T07:34:46.660Z,16.27
2019-04-07T07:37:15.832Z,16.00
2019-04-07T07:39:45.168Z,16.00
2019-04-07T07:42:14.745Z,15.97
2019-04-07T07:44:43.836Z,15.93
2019-04-07T07:47:12.355Z,15.93
2019-04-07T07:49:41.498Z,16.53
2019-04-07T07:52:11.614Z,16.37
2019-04-07T07:54:41.017Z,15.00
2019-04-07T07:57:09.618Z,16.23
2019-04-07T07:59:39.437Z,15.13
2019-04-07T08:02:08.612Z,14.90
2019-04-07T08:04:37.763Z,16.57
2019-04-07T08:07:06.681Z,16.20
2019-04-07T08:09:35.278Z,14.80
2019-04-07T08:12:03.788Z,15.10
2019-04-07T08:14:32.498Z,15.07
2019-04-07T08:17:02.717Z,14.80
2019-04-07T08:19:31.768Z,14.27
2019-04-07T08:22:00.651Z,14.03
2019-04-07T08:24:29.358Z,13.83
2019-04-07T08:26:59.107Z,13.47
2019-04-07T08:29:28.048Z,13.87
2019-04-07T08:31:56.644Z,13.40
2019-04-07T08:34:25.486Z,12.63
2019-04-07T08:36:54.167Z,13.40
2019-04-07T08:39:25.660Z,13.33
2019-04-07T08:41:52.933Z,13.17
2019-04-07T08:44:21.611Z,12.67
2019-04-07T08:46:50.816Z,12.60
2019-04-07T08:49:23.378Z,12.97
2019-04-07T08:51:49.558Z,12.70
2019-04-07T08:54:18.445Z,12.47
2019-04-07T08:56:47.012Z,12.83
2019-04-07T08:59:17.018Z,13.47
2019-04-07T09:01:45.816Z,12.90
2019-04-07T09:04:16.523Z,12.80
2019-04-07T09:06:44.937Z,12.07
2019-04-07T09:09:14.043Z,13.00
2019-04-07T09:11:42.582Z,12.17
2019-04-07T09:14:11.044Z,11.43
2019-04-07T09:16:41.649Z,11.73
2019-04-07T09:19:23.773Z,12.00
2019-04-07T09:21:54.332Z,11.40
2019-04-07T09:24:24.892Z,11.67
2019-04-07T09:27:17.107Z,11.13
2019-04-07T09:30:02.487Z,10.20
2019-04-07T09:32:44.899Z,10.50
2019-04-07T09:35:27.089Z,9.90
2019-04-07T09:37:57.657Z,10.03
2019-04-07T09:40:46.269Z,9.50
2019-04-07T09:43:19.180Z,9.60
2019-04-07T09:45:55.835Z,9.83
2019-04-07T09:48:35.445Z,10.00
2019-04-07T09:51:17.652Z,9.43
2019-04-07T09:53:50.257Z,9.93
2019-04-07T09:56:37.890Z,9.80
2019-04-07T09:59:08.046Z,10.10
2019-04-07T10:01:38.907Z,10.27
2019-04-07T10:04:09.188Z,9.93
2019-04-07T10:06:49.581Z,9.80
2019-04-07T10:09:28.564Z,9.90
2019-04-07T10:11:58.755Z,10.00
2019-04-07T10:14:45.149Z,10.40
2019-04-07T10:17:24.353Z,10.20
2019-04-07T10:19:55.016Z,9.43
2019-04-07T10:22:32.002Z,9.73
2019-04-07T10:25:09.184Z,9.70
2019-04-07T10:27:39.709Z,10.07
2019-04-07T10:30:26.978Z,10.43
2019-04-07T10:33:00.213Z,10.10
2019-04-07T10:35:30.672Z,9.77
2019-04-07T10:38:07.458Z,10.10
2019-04-07T10:40:41.153Z,10.67
2019-04-07T10:43:28.159Z,10.83
2019-04-07T10:46:02.336Z,10.30
2019-04-07T10:48:33.262Z,10.17
2019-04-07T10:51:19.802Z,9.93
2019-04-07T10:53:56.202Z,9.33
2019-04-07T10:56:26.586Z,10.20
2019-04-07T10:58:56.797Z,9.87
2019-04-07T11:01:36.848Z,10.07
2019-04-07T11:04:07.233Z,10.20
2019-04-07T11:06:46.221Z,10.67
2019-04-07T11:09:22.416Z,11.00
2019-04-07T11:11:55.266Z,10.77
2019-04-07T11:14:41.690Z,10.57
2019-04-07T11:17:12.533Z,10.17
2019-04-07T11:19:59.061Z,10.93
2019-04-07T11:22:33.759Z,10.93
2019-04-07T11:25:06.625Z,10.50
2019-04-07T11:27:48.990Z,10.17
2019-04-07T11:30:31.073Z,9.87
2019-04-07T11:33:19.296Z,10.77
2019-04-07T11:35:49.519Z,10.23
2019-04-07T11:38:19.821Z,10.00
2019-04-07T11:40:59.452Z,10.30
2019-04-07T11:43:30.411Z,10.13
2019-04-07T11:46:03.055Z,11.23
2019-04-07T11:48:49.059Z,10.93
2019-04-07T11:51:28.051Z,10.60
2019-04-07T11:53:58.855Z,10.23
2019-04-07T11:56:29.639Z,11.10
2019-04-07T11:59:07.801Z,10.40
2019-04-07T12:01:50.152Z,10.87
2019-04-07T12:04:21.710Z,10.50
2019-04-07T12:06:54.748Z,10.23
2019-04-07T12:09:28.296Z,10.30
2019-04-07T12:12:07.982Z,10.90
2019-04-07T12:14:38.485Z,9.93
2019-04-07T12:17:25.435Z,10.73
2019-04-07T12:20:10.902Z,10.10
2019-04-07T12:22:50.186Z,10.67
2019-04-07T12:25:21.100Z,10.73
2019-04-07T12:28:03.558Z,10.20
2019-04-07T12:30:42.650Z,10.67
2019-04-07T12:33:19.072Z,10.40
2019-04-07T12:35:55.140Z,10.10
2019-04-07T12:38:26.481Z,10.17
2019-04-07T12:41:16.967Z,10.53
2019-04-07T12:43:47.439Z,9.80
2019-04-07T12:46:15.564Z,10.20
2019-04-07T12:48:51.415Z,9.47
2019-04-07T12:51:37.856Z,9.53
2019-04-07T12:54:11.793Z,10.50
2019-04-07T12:56:42.327Z,9.37
2019-04-07T12:59:24.429Z,10.27
2019-04-07T13:01:54.564Z,10.33
2019-04-07T13:04:25.479Z,9.93
2019-04-07T13:06:55.670Z,9.30
2019-04-07T13:09:37.721Z,9.87
2019-04-07T13:12:25.399Z,9.40
2019-04-07T13:14:59.019Z,9.83
2019-04-07T13:17:38.166Z,9.90
2019-04-07T13:20:09.188Z,9.20
2019-04-07T13:22:48.694Z,8.97
2019-04-07T13:25:25.163Z,9.13
2019-04-07T13:28:08.169Z,8.80
2019-04-07T13:30:41.093Z,9.43
2019-04-07T13:33:20.550Z,8.97
2019-04-07T13:36:02.783Z,9.40
2019-04-07T13:38:32.935Z,8.77
2019-04-07T13:41:12.261Z,9.43
2019-04-07T13:43:48.671Z,8.83
2019-04-07T13:46:36.264Z,9.00
2019-04-07T13:49:14.972Z,9.60
2019-04-07T13:51:59.907Z,9.10
2019-04-07T13:54:35.400Z,9.20
2019-04-07T13:57:25.618Z,9.67
2019-04-07T13:59:59.331Z,8.90
2019-04-07T14:02:38.882Z,9.50
2019-04-07T14:05:18.540Z,9.13
2019-04-07T14:07:55.412Z,8.80
2019-04-07T14:10:25.683Z,9.13
2019-04-07T14:12:55.767Z,9.07
2019-04-07T14:15:42.016Z,8.83
2019-04-07T14:18:30.936Z,8.57
2019-04-07T14:21:07.065Z,9.07
2019-04-07T14:23:42.554Z,9.10
2019-04-07T14:26:19.030Z,8.33
2019-04-07T14:28:54.870Z,8.50
2019-04-07T14:31:28.226Z,9.07
2019-04-07T14:34:13.917Z,8.93
2019-04-07T14:37:02.188Z,9.30
2019-04-07T14:39:32.503Z,8.53
2019-04-07T14:42:08.708Z,8.93
2019-04-07T14:44:50.023Z,9.87
2019-04-07T14:47:28.853Z,9.27
2019-04-07T14:50:07.949Z,8.73
2019-04-07T14:52:38.320Z,8.93
2019-04-07T14:55:18.388Z,9.10
2019-04-07T14:58:01.336Z,9.07
2019-04-07T15:00:34.480Z,8.77
2019-04-07T15:03:02.954Z,9.43
2019-04-07T15:05:33.031Z,9.33
2019-04-07T15:08:03.344Z,8.93
2019-04-07T15:10:34.072Z,9.73
2019-04-07T15:13:04.228Z,9.00
2019-04-07T15:15:33.804Z,8.10
2019-04-07T15:18:03.633Z,9.00
2019-04-07T15:20:32.314Z,8.83
2019-04-07T15:23:01.925Z,8.50
2019-04-07T15:25:31.369Z,8.20
2019-04-07T15:28:01.062Z,8.97
2019-04-07T15:30:29.985Z,8.33
2019-04-07T15:33:01.229Z,8.47
2019-04-07T15:35:29.621Z,9.57
2019-04-07T15:37:59.087Z,8.43
2019-04-07T15:40:28.168Z,8.90
2019-04-07T15:42:56.911Z,8.70
2019-04-07T15:45:25.439Z,8.67
2019-04-07T15:47:54.089Z,8.77
2019-04-07T15:50:22.687Z,8.87
2019-04-07T15:52:51.253Z,8.73
2019-04-07T15:55:19.837Z,8.90
2019-04-07T15:57:49.183Z,8.60
2019-04-07T16:00:19.536Z,8.60
2019-04-07T16:02:49.357Z,8.03
2019-04-07T16:05:18.336Z,8.80
2019-04-07T16:07:46.805Z,9.13
2019-04-07T16:10:18.677Z,9.07
2019-04-07T16:12:51.139Z,8.90
2019-04-07T16:15:18.165Z,8.60
2019-04-07T16:17:47.599Z,8.40
2019-04-07T16:20:22.938Z,9.57
2019-04-07T16:22:49.023Z,8.70
2019-04-07T16:25:17.283Z,9.30
2019-04-07T16:27:45.788Z,8.60
2019-04-07T16:30:16.429Z,10.00
2019-04-07T16:32:45.294Z,8.87
2019-04-07T16:35:16.317Z,9.57
2019-04-07T16:37:44.517Z,9.57
2019-04-07T16:40:13.173Z,9.07
2019-04-07T16:42:45.609Z,9.80
2019-04-07T16:45:16.463Z,8.97
2019-04-07T16:47:43.332Z,9.77
2019-04-07T16:50:12.254Z,8.67
2019-04-07T16:52:40.731Z,8.80
2019-04-07T16:55:28.614Z,9.27
2019-04-07T16:57:59.452Z,8.80
2019-04-07T17:00:28.007Z,8.07
2019-04-07T17:02:56.901Z,8.20
2019-04-07T17:05:25.664Z,7.83
2019-04-07T17:07:56.561Z,8.67
2019-04-07T17:10:28.856Z,8.57
2019-04-07T17:12:54.753Z,8.60
2019-04-07T17:15:23.435Z,8.33
2019-04-07T17:17:53.325Z,9.23
2019-04-07T17:20:22.968Z,8.90
2019-04-07T17:22:52.988Z,8.60
2019-04-07T17:25:21.730Z,8.87
2019-04-07T17:27:50.891Z,8.03
2019-04-07T17:30:24.339Z,7.87
2019-04-07T17:32:52.234Z,8.53
2019-04-07T17:35:21.606Z,9.23
2019-04-07T17:37:50.614Z,8.37
2019-04-07T17:40:23.421Z,8.00
2019-04-07T17:42:53.710Z,8.90
2019-04-07T17:45:24.639Z,7.97
2019-04-07T17:48:05.580Z,8.50
2019-04-07T17:50:33.669Z,8.50
2019-04-07T17:53:19.773Z,8.57
2019-04-07T17:55:52.775Z,8.47
2019-04-07T17:58:40.858Z,8.27
2019-04-07T18:01:23.227Z,8.77
2019-04-07T18:04:00.658Z,8.37
2019-04-07T18:06:32.082Z,8.07
2019-04-07T18:09:12.220Z,7.97
2019-04-07T18:11:40.148Z,8.43
2019-04-07T18:14:13.182Z,8.30
2019-04-07T18:16:55.112Z,8.07
2019-04-07T18:19:39.797Z,7.77
2019-04-07T18:22:12.602Z,8.77
2019-04-07T18:24:59.629Z,9.30
2019-04-07T18:27:48.240Z,8.30
2019-04-07T18:30:18.614Z,8.57
2019-04-07T18:33:04.279Z,8.43
2019-04-07T18:35:43.345Z,8.90
2019-04-07T18:38:29.817Z,8.37
2019-04-07T18:41:09.348Z,8.63
2019-04-07T18:43:52.008Z,9.13
2019-04-07T18:46:21.514Z,9.13
2019-04-07T18:49:06.446Z,8.10
2019-04-07T18:51:47.149Z,8.03
2019-04-07T18:54:14.095Z,7.63
2019-04-07T18:56:47.523Z,8.83
2019-04-07T18:59:26.956Z,8.47
2019-04-07T19:02:03.253Z,8.63
2019-04-07T19:04:33.428Z,10.50
2019-04-07T19:07:09.756Z,9.33
2019-04-07T19:09:39.867Z,9.93
2019-04-07T19:12:16.805Z,11.03
2019-04-07T19:15:06.530Z,10.33
2019-04-07T19:17:48.177Z,10.47
2019-04-07T19:20:24.771Z,10.00
2019-04-07T19:23:02.390Z,10.00
2019-04-07T19:25:51.172Z,10.37
2019-04-07T19:28:24.056Z,9.37
2019-04-07T19:30:54.996Z,11.27
2019-04-07T19:33:31.089Z,10.20
2019-04-07T19:36:12.092Z,10.77
2019-04-07T19:38:58.512Z,11.53
2019-04-07T19:41:31.118Z,10.20
2019-04-07T19:44:17.607Z,10.43
2019-04-07T19:47:04.555Z,10.20
2019-04-07T19:49:34.797Z,11.30
2019-04-07T19:52:22.899Z,11.60
2019-04-07T19:54:53.098Z,12.33
2019-04-07T19:57:39.350Z,11.60
2019-04-07T20:00:15.375Z,11.00
2019-04-07T20:02:53.425Z,11.67
2019-04-07T20:05:23.713Z,11.33
2019-04-07T20:08:03.065Z,12.03
2019-04-07T20:10:49.877Z,11.30
2019-04-07T20:13:20.108Z,12.03
2019-04-07T20:15:50.205Z,11.17
2019-04-07T20:18:29.999Z,11.80
2019-04-07T20:21:18.312Z,11.80
2019-04-07T20:23:51.008Z,12.67
2019-04-07T20:26:30.473Z,12.47
2019-04-07T20:29:17.199Z,11.47
2019-04-07T20:32:04.678Z,12.27
2019-04-07T20:34:40.133Z,11.57
2019-04-07T20:37:07.225Z,11.87
2019-04-07T20:39:37.718Z,13.63
2019-04-07T20:42:11.411Z,12.67
2019-04-07T20:44:59.970Z,11.70
2019-04-07T20:47:26.369Z,12.43
2019-04-07T20:50:14.313Z,12.30
2019-04-07T20:52:46.024Z,11.97
2019-04-07T20:55:16.207Z,11.57
2019-04-07T20:58:13.167Z,12.83
2019-04-07T21:00:57.660Z,11.90
2019-04-07T21:03:23.778Z,12.70
2019-04-07T21:05:56.003Z,11.97
2019-04-07T21:08:29.944Z,12.27
2019-04-07T21:11:09.731Z,13.17
2019-04-07T21:13:49.050Z,12.77
2019-04-07T21:16:25.967Z,13.10
2019-04-07T21:19:07.693Z,12.90
2019-04-07T21:21:41.647Z,12.80
2019-04-07T21:24:10.286Z,13.17
2019-04-07T21:26:49.297Z,13.53
2019-04-07T21:29:22.512Z,13.33
2019-04-07T21:31:53.547Z,12.93
2019-04-07T21:34:30.650Z,12.53
2019-04-07T21:37:04.723Z,12.23
2019-04-07T21:39:51.614Z,13.00
2019-04-07T21:42:22.236Z,13.03
2019-04-07T21:45:05.470Z,13.53
2019-04-07T21:47:39.771Z,13.40
2019-04-07T21:50:13.894Z,12.77
2019-04-07T21:52:55.898Z,12.93
2019-04-07T21:55:31.720Z,13.37
2019-04-07T21:58:19.594Z,13.57
2019-04-07T22:01:08.519Z,13.63
2019-04-07T22:03:48.105Z,15.43
2019-04-07T22:06:17.742Z,14.70
2019-04-07T22:09:04.642Z,14.50
2019-04-07T22:11:33.176Z,13.67
2019-04-07T22:14:04.036Z,14.10
2019-04-07T22:16:32.833Z,14.67
2019-04-07T22:19:02.238Z,14.53
2019-04-07T22:21:30.754Z,14.53
2019-04-07T22:24:01.354Z,15.30
2019-04-07T22:26:29.635Z,15.87
2019-04-07T22:29:01.272Z,14.60
2019-04-07T22:31:36.657Z,14.47
2019-04-07T22:34:05.392Z,14.03
2019-04-07T22:36:33.908Z,13.47
2019-04-07T22:39:02.512Z,13.67
2019-04-07T22:41:31.690Z,13.90
2019-04-07T22:44:00.226Z,13.83
2019-04-07T22:46:29.060Z,13.63
2019-04-07T22:48:58.729Z,13.33
2019-04-07T22:51:28.541Z,13.00
2019-04-07T22:53:57.713Z,11.40
2019-04-07T22:56:27.949Z,11.57
2019-04-07T22:58:56.487Z,13.17
2019-04-07T23:01:25.083Z,11.73
2019-04-07T23:03:53.813Z,11.93
2019-04-07T23:06:23.189Z,12.87
2019-04-07T23:08:51.657Z,12.60
2019-04-07T23:11:20.435Z,12.73
2019-04-07T23:13:49.330Z,12.33
2019-04-07T23:16:18.860Z,13.07
2019-04-07T23:18:47.789Z,12.30
2019-04-07T23:21:17.162Z,12.80
2019-04-07T23:23:46.227Z,12.67
2019-04-07T23:26:14.888Z,12.83
2019-04-07T23:28:44.294Z,13.10
2019-04-07T23:31:13.681Z,12.77
2019-04-07T23:33:42.321Z,13.80
2019-04-07T23:36:11.576Z,13.70
2019-04-07T23:38:41.068Z,13.53
2019-04-07T23:41:09.676Z,12.47
2019-04-07T23:43:38.123Z,13.33
2019-04-07T23:46:18.768Z,13.00
2019-04-07T23:48:36.765Z,13.30
2019-04-07T23:51:05.864Z,13.60
2019-04-07T23:54:09.005Z,13.13
2019-04-07T23:56:39.193Z,12.73
2019-04-07T23:59:08.210Z,13.00
